Time;durP1;ratioP1;P1;durP2;ratioP2;P2;SDS_P1;SDS_P2;PMS_P1;PMS_P2;Temp;Humidity;BMP_temperature;BMP_pressure;BME280_temperature;BME280_humidity;BME280_pressure;Samples;Min_cycle;Max_cycle;Signal;HPM_P1;HPM_P2
2022/05/23 00:02:08;;;;;;;1.23;0.88;;;;;;;;;;5050746;28;20120;-76
2022/05/23 00:04:34;;;;;;;1.52;1.00;;;;;;;;;;5050656;28;20025;-76
2022/05/23 00:06:59;;;;;;;2.30;1.20;;;;;;;;;;5050392;28;20414;-76
2022/05/23 00:09:26;;;;;;;1.10;1.00;;;;;;;;;;5050819;28;20514;-76
2022/05/23 00:11:52;;;;;;;0.98;0.90;;;;;;;;;;5050764;28;20118;-76
2022/05/23 00:14:17;;;;;;;2.42;1.15;;;;;;;;;;5052265;28;20072;-77
2022/05/23 00:16:46;;;;;;;2.38;1.10;;;;;;;;;;5050768;28;20335;-76
2022/05/23 00:19:12;;;;;;;1.92;1.20;;;;;;;;;;5050902;28;20467;-76
2022/05/23 00:21:40;;;;;;;2.28;1.13;;;;;;;;;;5050735;28;20523;-76
2022/05/23 00:24:06;;;;;;;2.45;1.38;;;;;;;;;;5050525;28;20036;-76
2022/05/23 00:26:32;;;;;;;1.25;1.00;;;;;;;;;;5050404;28;20029;-76
2022/05/23 00:28:57;;;;;;;1.45;1.00;;;;;;;;;;5017783;28;20120;-76
2022/05/23 00:31:23;;;;;;;1.52;1.20;;;;;;;;;;5051850;28;20028;-76
2022/05/23 00:36:33;;;;;;;1.85;1.38;;;;;;;;;;5051955;28;20067;-76
2022/05/23 00:38:59;;;;;;;1.52;1.10;;;;;;;;;;5050359;28;20465;-76
2022/05/23 00:44:20;;;;;;;4.63;1.20;;;;;;;;;;5050568;28;20071;-76
2022/05/23 00:47:22;;;;;;;1.55;1.10;;;;;;;;;;5050534;28;20063;-76
2022/05/23 00:49:47;;;;;;;1.25;0.98;;;;;;;;;;5040308;28;20056;-76
2022/05/23 00:52:22;;;;;;;1.45;1.20;;;;;;;;;;5050484;28;20067;-76
2022/05/23 00:54:49;;;;;;;2.92;1.10;;;;;;;;;;5050360;28;20078;-76
2022/05/23 00:57:21;;;;;;;3.17;1.55;;;;;;;;;;5036585;28;20151;-76
2022/05/23 00:59:47;;;;;;;0.95;0.80;;;;;;;;;;5053950;28;20381;-76
2022/05/23 01:02:13;;;;;;;1.38;0.90;;;;;;;;;;5037262;28;20052;-76
2022/05/23 01:04:39;;;;;;;0.90;0.90;;;;;;;;;;5037105;28;20029;-76
2022/05/23 01:07:05;;;;;;;2.67;1.10;;;;;;;;;;5055472;28;20379;-76
2022/05/23 01:09:31;;;;;;;1.10;1.00;;;;;;;;;;5053751;28;20072;-76
2022/05/23 01:11:58;;;;;;;1.10;0.90;;;;;;;;;;5053653;28;20029;-76
2022/05/23 01:14:24;;;;;;;1.30;1.05;;;;;;;;;;5054942;28;20040;-76
2022/05/23 01:16:49;;;;;;;1.88;1.05;;;;;;;;;;5054402;28;20399;-76
2022/05/23 01:19:14;;;;;;;4.07;1.52;;;;;;;;;;5036404;28;20178;-76
2022/05/23 01:22:13;;;;;;;2.25;1.10;;;;;;;;;;5053130;28;20383;-76
2022/05/23 01:24:51;;;;;;;1.85;1.08;;;;;;;;;;5039651;28;20071;-76
2022/05/23 01:27:17;;;;;;;1.75;1.00;;;;;;;;;;5036318;28;20401;-76
2022/05/23 01:29:44;;;;;;;2.65;1.15;;;;;;;;;;5036172;28;20024;-76
2022/05/23 01:32:09;;;;;;;1.63;1.00;;;;;;;;;;5054710;28;20036;-76
2022/05/23 01:34:35;;;;;;;11.32;1.35;;;;;;;;;;5036504;28;20037;-76
2022/05/23 01:37:01;;;;;;;2.00;1.10;;;;;;;;;;5053271;28;20072;-76
2022/05/23 01:39:26;;;;;;;2.03;1.10;;;;;;;;;;5053248;28;20118;-76
2022/05/23 01:41:52;;;;;;;3.35;1.15;;;;;;;;;;5054740;28;20025;-76
2022/05/23 01:44:17;;;;;;;1.20;1.10;;;;;;;;;;5053163;28;20029;-76
2022/05/23 01:46:42;;;;;;;1.98;1.15;;;;;;;;;;5054293;28;20040;-76
2022/05/23 01:49:08;;;;;;;1.55;1.02;;;;;;;;;;5054195;28;20028;-76
2022/05/23 01:51:33;;;;;;;1.48;1.10;;;;;;;;;;5054138;28;20074;-76
2022/05/23 01:53:59;;;;;;;3.35;1.00;;;;;;;;;;5052858;28;20025;-76
2022/05/23 01:56:24;;;;;;;2.30;1.00;;;;;;;;;;5036174;28;20079;-76
2022/05/23 02:01:33;;;;;;;;;;;;;;;;;;5053368;28;20023;-76
2022/05/23 02:03:58;;;;;;;1.27;0.90;;;;;;;;;;5036138;28;19913;-76
2022/05/23 02:06:24;;;;;;;1.45;0.90;;;;;;;;;;5052737;28;20033;-75
2022/05/23 02:08:50;;;;;;;2.78;1.30;;;;;;;;;;5052789;28;20025;-76
2022/05/23 02:11:15;;;;;;;2.22;1.20;;;;;;;;;;5052540;28;20029;-75
2022/05/23 02:13:43;;;;;;;2.35;1.15;;;;;;;;;;5052678;28;20028;-75
2022/05/23 02:16:09;;;;;;;1.20;1.10;;;;;;;;;;5052534;28;20062;-76
2022/05/23 02:18:34;;;;;;;1.10;1.00;;;;;;;;;;5035854;28;20129;-76
2022/05/23 02:21:00;;;;;;;2.33;1.10;;;;;;;;;;5052755;28;20025;-76
2022/05/23 02:23:25;;;;;;;1.90;1.10;;;;;;;;;;5052322;28;20044;-76
2022/05/23 02:25:51;;;;;;;1.40;1.25;;;;;;;;;;5052526;28;20028;-76
2022/05/23 02:28:17;;;;;;;1.20;1.00;;;;;;;;;;5035542;28;20553;-76
2022/05/23 02:30:43;;;;;;;2.30;1.10;;;;;;;;;;5051912;28;20037;-77
2022/05/23 02:33:08;;;;;;;1.30;0.95;;;;;;;;;;5035499;28;20395;-76
2022/05/23 02:35:34;;;;;;;1.63;1.15;;;;;;;;;;5035368;28;20098;-77
2022/05/23 02:37:59;;;;;;;1.20;1.10;;;;;;;;;;5018975;28;20130;-76
2022/05/23 02:40:25;;;;;;;2.75;1.20;;;;;;;;;;5052158;28;20041;-76
2022/05/23 02:42:50;;;;;;;1.10;1.00;;;;;;;;;;5035101;28;20029;-76
2022/05/23 02:45:16;;;;;;;1.15;1.08;;;;;;;;;;5051844;28;20112;-77
2022/05/23 02:47:43;;;;;;;2.25;1.10;;;;;;;;;;5051554;28;20083;-76
2022/05/23 02:50:09;;;;;;;1.85;1.10;;;;;;;;;;5034815;28;20079;-77
2022/05/23 02:52:35;;;;;;;1.63;0.95;;;;;;;;;;5051153;28;20537;-76
2022/05/23 02:55:01;;;;;;;2.35;1.27;;;;;;;;;;5052835;28;20036;-76
2022/05/23 02:57:26;;;;;;;1.23;1.10;;;;;;;;;;5034671;28;20033;-76
2022/05/23 02:59:52;;;;;;;1.10;1.00;;;;;;;;;;5051088;28;20035;-76
2022/05/23 03:05:01;;;;;;;2.38;1.20;;;;;;;;;;5023406;28;20266;-76
2022/05/23 03:07:26;;;;;;;1.65;1.20;;;;;;;;;;5034784;28;20545;-76
2022/05/23 03:09:52;;;;;;;3.10;1.30;;;;;;;;;;5052679;28;20025;-76
2022/05/23 03:12:17;;;;;;;4.20;1.55;;;;;;;;;;5050985;28;20128;-76
2022/05/23 03:14:42;;;;;;;1.42;1.08;;;;;;;;;;5051453;28;20155;-76
2022/05/23 03:17:08;;;;;;;1.23;0.90;;;;;;;;;;5051278;28;20028;-76
2022/05/23 03:19:38;;;;;;;1.63;1.10;;;;;;;;;;5050804;28;20021;-76
2022/05/23 03:27:33;;;;;;;2.17;1.42;;;;;;;;;;5051084;28;20512;-76
2022/05/23 03:29:59;;;;;;;1.98;1.27;;;;;;;;;;5034010;28;20103;-76
2022/05/23 03:32:24;;;;;;;2.25;1.20;;;;;;;;;;5017571;28;20407;-76
2022/05/23 03:34:50;;;;;;;2.40;1.10;;;;;;;;;;5034006;28;20498;-76
2022/05/23 03:37:16;;;;;;;1.77;1.20;;;;;;;;;;5034095;28;20037;-76
2022/05/23 03:39:41;;;;;;;1.60;1.08;;;;;;;;;;5064302;28;20048;-76
2022/05/23 03:42:07;;;;;;;2.67;1.20;;;;;;;;;;5053726;28;20021;-75
2022/05/23 03:44:32;;;;;;;1.13;1.00;;;;;;;;;;5072152;28;20061;-75
2022/05/23 03:46:57;;;;;;;1.30;1.10;;;;;;;;;;5037248;28;20040;-76
2022/05/23 03:49:23;;;;;;;2.40;1.52;;;;;;;;;;5036997;28;20090;-76
2022/05/23 03:51:48;;;;;;;2.25;1.05;;;;;;;;;;5053573;28;20444;-76
2022/05/23 03:54:13;;;;;;;1.00;0.90;;;;;;;;;;5053778;28;20040;-76
2022/05/23 03:56:39;;;;;;;1.10;1.00;;;;;;;;;;5020638;28;20028;-76
2022/05/23 03:59:04;;;;;;;1.60;1.13;;;;;;;;;;5020723;28;20433;-76
2022/05/23 04:01:30;;;;;;;2.55;1.40;;;;;;;;;;5053788;28;20059;-76
2022/05/23 04:03:57;;;;;;;2.05;1.17;;;;;;;;;;5053879;28;20025;-76
2022/05/23 04:06:22;;;;;;;2.80;1.30;;;;;;;;;;5037338;28;20047;-76
2022/05/23 04:08:48;;;;;;;1.23;1.00;;;;;;;;;;5036967;28;20395;-76
2022/05/23 04:11:13;;;;;;;2.60;1.40;;;;;;;;;;5036991;28;20085;-76
2022/05/23 04:13:38;;;;;;;1.73;1.30;;;;;;;;;;5071773;28;20498;-78
2022/05/23 04:16:08;;;;;;;1.30;1.10;;;;;;;;;;5037379;28;20028;-78
2022/05/23 04:18:34;;;;;;;3.88;1.77;;;;;;;;;;5037183;28;20025;-77
2022/05/23 04:21:01;;;;;;;3.63;1.73;;;;;;;;;;5020696;28;20021;-77
2022/05/23 04:23:27;;;;;;;3.05;1.92;;;;;;;;;;5037805;28;20032;-77
2022/05/23 04:25:52;;;;;;;3.88;1.60;;;;;;;;;;5036794;28;20026;-77
2022/05/23 04:28:19;;;;;;;1.77;1.42;;;;;;;;;;5036898;28;20138;-78
2022/05/23 04:30:45;;;;;;;3.08;1.65;;;;;;;;;;5073667;28;20063;-75
2022/05/23 04:35:56;;;;;;;4.30;1.95;;;;;;;;;;5046268;28;20123;-78
2022/05/23 04:38:21;;;;;;;5.65;1.90;;;;;;;;;;5040670;28;20028;-78
2022/05/23 04:40:47;;;;;;;4.10;1.60;;;;;;;;;;5057533;28;20054;-78
2022/05/23 04:43:13;;;;;;;5.60;2.00;;;;;;;;;;5057506;28;20036;-78
2022/05/23 04:45:39;;;;;;;3.35;1.88;;;;;;;;;;5040682;28;20505;-78
2022/05/23 04:50:49;;;;;;;5.32;2.20;;;;;;;;;;5060080;28;20093;-79
2022/05/23 04:53:15;;;;;;;3.10;2.00;;;;;;;;;;5057460;28;20406;-84
2022/05/23 04:55:43;;;;;;;5.47;2.13;;;;;;;;;;5057850;28;20079;-80
2022/05/23 04:58:10;;;;;;;9.95;3.53;;;;;;;;;;5057504;28;20024;-80
2022/05/23 05:00:36;;;;;;;19.77;4.50;;;;;;;;;;5057074;28;20032;-80
2022/05/23 05:03:01;;;;;;;21.42;5.95;;;;;;;;;;5057303;28;20376;-81
2022/05/23 05:05:28;;;;;;;30.67;6.10;;;;;;;;;;5056720;28;20387;-80
2022/05/23 05:07:57;;;;;;;14.85;4.90;;;;;;;;;;5056820;28;20102;-80
2022/05/23 05:10:23;;;;;;;15.60;4.13;;;;;;;;;;5040166;28;20029;-80
2022/05/23 05:12:50;;;;;;;12.73;3.78;;;;;;;;;;5040029;28;20064;-80
2022/05/23 05:15:16;;;;;;;12.93;4.22;;;;;;;;;;5039903;28;20051;-80
2022/05/23 05:17:42;;;;;;;12.52;3.88;;;;;;;;;;5023483;28;20039;-79
2022/05/23 05:20:08;;;;;;;20.67;5.13;;;;;;;;;;5074297;28;20429;-79
2022/05/23 05:22:35;;;;;;;20.10;5.13;;;;;;;;;;5056028;28;20025;-79
2022/05/23 05:25:01;;;;;;;14.40;5.18;;;;;;;;;;5073629;28;20390;-78
2022/05/23 05:27:28;;;;;;;17.55;4.75;;;;;;;;;;5039485;28;20544;-78
2022/05/23 05:29:53;;;;;;;21.50;4.07;;;;;;;;;;5074053;28;20031;-77
2022/05/23 05:32:24;;;;;;;16.67;4.13;;;;;;;;;;5055647;28;20029;-79
2022/05/23 05:35:27;;;;;;;12.40;4.05;;;;;;;;;;5056250;28;20458;-78
2022/05/23 05:38:09;;;;;;;12.10;3.00;;;;;;;;;;5057216;28;20040;-79
2022/05/23 05:40:36;;;;;;;7.63;3.38;;;;;;;;;;5055127;28;20365;-78
2022/05/23 05:43:09;;;;;;;10.90;3.80;;;;;;;;;;5054855;28;20051;-78
2022/05/23 05:45:44;;;;;;;9.13;3.22;;;;;;;;;;5039657;28;20047;-77
2022/05/23 05:48:10;;;;;;;9.48;3.25;;;;;;;;;;5057232;28;20040;-78
2022/05/23 05:50:38;;;;;;;11.45;3.67;;;;;;;;;;5058405;28;20033;-77
2022/05/23 05:53:09;;;;;;;8.05;3.08;;;;;;;;;;5058106;28;20039;-78
2022/05/23 05:55:35;;;;;;;8.45;2.97;;;;;;;;;;5057695;28;20463;-78
2022/05/23 05:58:00;;;;;;;8.98;3.03;;;;;;;;;;5055660;28;20028;-78
2022/05/23 06:00:26;;;;;;;7.18;2.60;;;;;;;;;;5038829;28;20481;-79
2022/05/23 06:02:51;;;;;;;6.40;2.70;;;;;;;;;;5055398;28;20037;-78
2022/05/23 06:05:17;;;;;;;6.57;2.40;;;;;;;;;;5055399;28;20054;-79
2022/05/23 06:13:11;;;;;;;6.03;2.28;;;;;;;;;;5073505;28;20295;-80
2022/05/23 06:15:37;;;;;;;5.63;2.42;;;;;;;;;;5038774;28;20029;-79
2022/05/23 06:18:02;;;;;;;5.00;2.25;;;;;;;;;;5038614;28;20037;-79
2022/05/23 06:20:28;;;;;;;5.40;2.30;;;;;;;;;;5055830;28;20024;-79
2022/05/23 06:22:53;;;;;;;5.85;2.20;;;;;;;;;;5022348;28;20050;-79
2022/05/23 06:25:19;;;;;;;4.68;2.22;;;;;;;;;;5022173;28;20036;-78
2022/05/23 06:27:44;;;;;;;4.93;2.33;;;;;;;;;;5055158;28;20033;-76
2022/05/23 06:30:12;;;;;;;5.78;2.40;;;;;;;;;;5054655;28;20127;-77
2022/05/23 06:32:38;;;;;;;4.63;2.13;;;;;;;;;;5055071;28;20470;-77
2022/05/23 06:35:07;;;;;;;2.47;1.90;;;;;;;;;;5072608;28;20070;-78
2022/05/23 06:37:36;;;;;;;5.38;2.35;;;;;;;;;;5055353;28;20090;-78
2022/05/23 06:40:03;;;;;;;5.15;2.17;;;;;;;;;;5037992;28;20359;-78
2022/05/23 06:42:30;;;;;;;4.28;2.47;;;;;;;;;;5054711;28;20062;-77
2022/05/23 06:44:55;;;;;;;3.70;2.10;;;;;;;;;;5054242;28;20036;-77
2022/05/23 06:47:21;;;;;;;4.32;2.20;;;;;;;;;;5072855;28;20032;-78
2022/05/23 06:49:46;;;;;;;5.40;1.80;;;;;;;;;;5038190;28;20081;-78
2022/05/23 06:52:15;;;;;;;3.42;2.10;;;;;;;;;;5054925;28;20178;-77
2022/05/23 06:54:41;;;;;;;3.17;1.63;;;;;;;;;;5037967;28;20040;-77
2022/05/23 06:57:06;;;;;;;4.35;1.98;;;;;;;;;;5054597;28;20028;-78
2022/05/23 06:59:31;;;;;;;4.47;2.15;;;;;;;;;;5054015;28;20028;-78
2022/05/23 07:01:58;;;;;;;2.85;1.73;;;;;;;;;;5072810;28;20026;-78
2022/05/23 07:04:23;;;;;;;2.05;1.63;;;;;;;;;;5054370;28;20025;-78
2022/05/23 07:12:27;;;;;;;3.58;1.88;;;;;;;;;;5071924;28;20036;-78
2022/05/23 07:14:56;;;;;;;3.80;2.00;;;;;;;;;;5055543;28;20181;-78
2022/05/23 07:17:22;;;;;;;2.97;1.60;;;;;;;;;;5072232;28;20111;-78
2022/05/23 07:19:48;;;;;;;1.95;1.60;;;;;;;;;;5037169;28;20074;-78
2022/05/23 07:22:14;;;;;;;3.10;1.70;;;;;;;;;;5072420;28;20032;-78
2022/05/23 07:24:41;;;;;;;5.60;1.83;;;;;;;;;;5053624;28;20029;-78
2022/05/23 07:27:06;;;;;;;5.82;2.20;;;;;;;;;;5054060;28;20032;-79
2022/05/23 07:29:32;;;;;;;2.00;1.63;;;;;;;;;;5054120;28;20036;-79
2022/05/23 07:31:58;;;;;;;7.38;1.60;;;;;;;;;;5036912;28;20094;-80
2022/05/23 07:34:24;;;;;;;5.13;1.95;;;;;;;;;;5053906;28;20103;-79
2022/05/23 07:36:49;;;;;;;2.95;1.63;;;;;;;;;;5053982;28;20491;-79
2022/05/23 07:39:15;;;;;;;2.67;1.90;;;;;;;;;;5053886;28;20483;-78
2022/05/23 07:41:42;;;;;;;3.97;1.88;;;;;;;;;;5071601;28;20028;-77
2022/05/23 07:44:08;;;;;;;6.18;1.65;;;;;;;;;;5072022;28;20020;-78
2022/05/23 07:46:34;;;;;;;3.50;1.67;;;;;;;;;;5053635;28;20406;-78
2022/05/23 07:49:00;;;;;;;3.47;1.45;;;;;;;;;;5037180;28;20044;-78
2022/05/23 07:51:29;;;;;;;3.13;1.60;;;;;;;;;;5053493;28;20055;-78
2022/05/23 08:02:09;;;;;;;9.73;2.80;;;;;;;;;;5072134;28;20062;-77
2022/05/23 08:04:35;;;;;;;5.78;2.40;;;;;;;;;;5072957;28;20058;-77
2022/05/23 08:07:00;;;;;;;7.93;2.30;;;;;;;;;;5078914;28;20028;-76
2022/05/23 08:09:26;;;;;;;12.90;2.40;;;;;;;;;;5043753;28;20032;-78
2022/05/23 08:11:54;;;;;;;6.95;2.15;;;;;;;;;;5082370;28;20032;-76
2022/05/23 08:14:21;;;;;;;4.22;1.70;;;;;;;;;;5063946;28;20508;-77
2022/05/23 08:16:46;;;;;;;3.45;1.60;;;;;;;;;;5080156;28;20063;-76
2022/05/23 08:19:12;;;;;;;3.40;1.60;;;;;;;;;;5063354;28;20058;-76
2022/05/23 08:21:42;;;;;;;5.88;1.55;;;;;;;;;;5080622;28;20455;-76
2022/05/23 08:24:08;;;;;;;4.20;1.90;;;;;;;;;;5063756;28;20023;-77
2022/05/23 08:26:34;;;;;;;12.30;2.15;;;;;;;;;;5098490;28;20497;-78
2022/05/23 08:28:59;;;;;;;5.22;1.92;;;;;;;;;;5079713;28;20024;-77
2022/05/23 08:31:25;;;;;;;5.78;2.22;;;;;;;;;;5098148;28;20027;-76
2022/05/23 08:33:50;;;;;;;5.95;1.77;;;;;;;;;;5098481;28;20140;-75
2022/05/23 08:36:16;;;;;;;3.70;1.60;;;;;;;;;;5080142;28;20344;-75
2022/05/23 08:38:42;;;;;;;4.40;1.60;;;;;;;;;;5079559;28;20079;-77
2022/05/23 08:41:13;;;;;;;6.63;1.60;;;;;;;;;;5079878;28;20358;-77
2022/05/23 08:44:05;;;;;;;5.65;1.90;;;;;;;;;;5098309;28;20088;-77
2022/05/23 08:46:45;;;;;;;6.75;1.75;;;;;;;;;;5048944;28;20047;-77
2022/05/23 08:49:32;;;;;;;3.17;1.42;;;;;;;;;;5079569;28;20054;-78
2022/05/23 08:52:13;;;;;;;2.47;1.50;;;;;;;;;;5079689;28;20028;-77
2022/05/23 08:55:04;;;;;;;4.15;1.30;;;;;;;;;;5079879;28;20023;-77
2022/05/23 08:57:33;;;;;;;5.38;1.52;;;;;;;;;;5062864;28;20097;-78
2022/05/23 09:00:03;;;;;;;2.47;1.48;;;;;;;;;;5079887;28;20024;-77
2022/05/23 09:02:42;;;;;;;4.10;1.48;;;;;;;;;;5063121;28;20032;-77
2022/05/23 09:05:21;;;;;;;2.67;1.60;;;;;;;;;;5079805;28;20023;-76
2022/05/23 09:07:55;;;;;;;3.58;1.90;;;;;;;;;;5062912;28;20483;-77
2022/05/23 09:10:30;;;;;;;2.33;1.58;;;;;;;;;;5079959;28;20032;-76
2022/05/23 09:12:55;;;;;;;2.17;1.67;;;;;;;;;;5079769;28;20028;-76
2022/05/23 09:15:21;;;;;;;2.70;1.40;;;;;;;;;;5063192;28;20577;-76
2022/05/23 09:17:55;;;;;;;2.92;1.50;;;;;;;;;;5093350;28;20054;-77
2022/05/23 09:20:33;;;;;;;;;;;;;;;;;;5076886;28;20055;-77
2022/05/23 09:23:00;;;;;;;2.28;1.17;;;;;;;;;;5094684;28;19908;-77
2022/05/23 09:25:26;;;;;;;4.47;1.40;;;;;;;;;;5076578;28;20024;-77
2022/05/23 09:28:15;;;;;;;1.60;1.10;;;;;;;;;;5076225;28;20130;-77
2022/05/23 09:30:42;;;;;;;1.80;1.20;;;;;;;;;;5076416;28;20024;-77
2022/05/23 09:33:12;;;;;;;4.63;1.38;;;;;;;;;;5059499;28;20395;-77
2022/05/23 09:35:43;;;;;;;1.77;1.20;;;;;;;;;;5076234;28;20158;-78
2022/05/23 09:38:19;;;;;;;2.08;1.33;;;;;;;;;;5094282;28;20050;-77
2022/05/23 09:40:45;;;;;;;2.70;1.20;;;;;;;;;;5076464;28;20047;-77
2022/05/23 09:49:11;;;;;;;2.92;1.50;;;;;;;;;;5093706;28;20043;-78
2022/05/23 09:52:01;;;;;;;3.00;1.33;;;;;;;;;;5075784;28;20028;-79
2022/05/23 09:54:36;;;;;;;3.65;1.60;;;;;;;;;;5048784;28;20135;-78
2022/05/23 09:57:18;;;;;;;5.47;1.80;;;;;;;;;;5058887;28;20460;-79
2022/05/23 09:59:44;;;;;;;3.20;1.38;;;;;;;;;;5075299;28;20030;-78
2022/05/23 10:02:15;;;;;;;5.10;1.80;;;;;;;;;;5075792;28;20024;-78
2022/05/23 10:04:44;;;;;;;3.58;1.60;;;;;;;;;;5093874;28;20024;-78
2022/05/23 10:07:29;;;;;;;2.47;1.45;;;;;;;;;;5059051;28;20028;-76
2022/05/23 10:10:00;;;;;;;2.85;1.60;;;;;;;;;;5058460;28;20032;-77
2022/05/23 10:12:26;;;;;;;5.88;1.80;;;;;;;;;;5058759;28;20021;-77
2022/05/23 10:15:28;;;;;;;4.65;1.60;;;;;;;;;;5058791;28;20114;-77
2022/05/23 10:18:05;;;;;;;2.63;1.70;;;;;;;;;;5049690;28;20035;-77
2022/05/23 10:20:40;;;;;;;2.47;1.58;;;;;;;;;;5075073;28;20024;-78
2022/05/23 10:23:09;;;;;;;5.38;1.77;;;;;;;;;;5075460;28;20368;-78
2022/05/23 10:25:38;;;;;;;3.58;1.55;;;;;;;;;;5075600;28;20024;-78
2022/05/23 10:28:21;;;;;;;2.65;1.63;;;;;;;;;;5093488;28;20077;-77
2022/05/23 10:31:01;;;;;;;1.33;1.23;;;;;;;;;;5058925;28;20513;-76
2022/05/23 10:33:28;;;;;;;5.80;1.70;;;;;;;;;;5058702;28;20077;-77
2022/05/23 10:36:19;;;;;;;2.22;1.38;;;;;;;;;;5074878;28;20125;-77
2022/05/23 10:42:07;;;;;;;4.80;1.35;;;;;;;;;;5073049;28;20035;-77
2022/05/23 10:44:56;;;;;;;6.47;1.45;;;;;;;;;;5041065;28;20064;-77
2022/05/23 10:47:41;;;;;;;3.17;1.80;;;;;;;;;;5054898;28;20103;-79
2022/05/23 10:50:25;;;;;;;1.85;1.30;;;;;;;;;;5055205;28;20494;-78
2022/05/23 10:52:59;;;;;;;2.45;1.48;;;;;;;;;;5071713;28;20495;-77
2022/05/23 10:55:48;;;;;;;2.25;1.50;;;;;;;;;;5073001;28;20033;-77
2022/05/23 10:58:32;;;;;;;3.70;1.50;;;;;;;;;;5025671;28;20170;-78
2022/05/23 11:01:20;;;;;;;3.65;1.98;;;;;;;;;;5073287;28;20024;-78
2022/05/23 11:03:54;;;;;;;5.60;1.77;;;;;;;;;;5071842;28;20031;-77
2022/05/23 11:06:30;;;;;;;4.72;1.58;;;;;;;;;;5073349;28;20021;-78
2022/05/23 11:09:08;;;;;;;4.40;1.50;;;;;;;;;;5071853;28;20020;-78
2022/05/23 11:11:49;;;;;;;4.13;1.50;;;;;;;;;;5071641;28;20055;-77
2022/05/23 11:14:39;;;;;;;3.85;1.50;;;;;;;;;;5072943;28;20027;-78
2022/05/23 11:17:29;;;;;;;2.80;1.70;;;;;;;;;;5072730;28;20028;-79
2022/05/23 11:20:18;;;;;;;3.85;1.70;;;;;;;;;;5072798;28;20534;-78
2022/05/23 11:22:46;;;;;;;6.25;2.13;;;;;;;;;;5072806;28;20020;-78
2022/05/23 11:25:18;;;;;;;8.00;2.30;;;;;;;;;;5071161;28;20111;-78
2022/05/23 11:33:46;;;;;;;5.82;2.13;;;;;;;;;;5087985;28;20047;-77
2022/05/23 11:36:15;;;;;;;3.50;1.90;;;;;;;;;;5090567;28;20394;-78
2022/05/23 11:38:45;;;;;;;5.32;2.95;;;;;;;;;;5070357;28;20151;-78
2022/05/23 11:41:10;;;;;;;6.47;2.13;;;;;;;;;;5072551;28;20017;-77
2022/05/23 11:43:36;;;;;;;2.47;1.85;;;;;;;;;;5044009;28;20032;-77
2022/05/23 11:46:06;;;;;;;5.88;1.83;;;;;;;;;;5033412;28;20044;-77
2022/05/23 11:48:34;;;;;;;5.18;1.60;;;;;;;;;;5049572;28;20079;-78
2022/05/23 11:51:29;;;;;;;5.13;1.95;;;;;;;;;;5055296;28;20027;-77
2022/05/23 11:53:56;;;;;;;9.38;2.03;;;;;;;;;;5053269;28;20861;-77
2022/05/23 11:56:42;;;;;;;4.22;1.75;;;;;;;;;;5038326;28;20070;-77
2022/05/23 11:59:10;;;;;;;3.88;1.90;;;;;;;;;;5056348;28;20493;-78
2022/05/23 12:01:36;;;;;;;5.00;1.90;;;;;;;;;;5027557;28;20028;-77
2022/05/23 12:04:01;;;;;;;2.78;1.58;;;;;;;;;;5045884;28;20059;-78
2022/05/23 12:06:27;;;;;;;4.45;1.85;;;;;;;;;;5071399;28;20125;-78
2022/05/23 12:09:01;;;;;;;4.97;2.15;;;;;;;;;;5054032;28;20017;-77
2022/05/23 12:11:31;;;;;;;2.40;1.77;;;;;;;;;;5036925;28;20090;-78
2022/05/23 12:14:14;;;;;;;4.05;1.80;;;;;;;;;;5053834;28;20020;-77
2022/05/23 12:16:54;;;;;;;10.27;1.58;;;;;;;;;;5053487;28;20120;-77
2022/05/23 12:19:41;;;;;;;2.42;1.60;;;;;;;;;;5071265;28;20025;-76
2022/05/23 12:22:18;;;;;;;2.40;1.60;;;;;;;;;;5053304;28;20029;-77
2022/05/23 12:24:56;;;;;;;4.63;1.73;;;;;;;;;;5071455;28;20024;-77
2022/05/23 12:27:33;;;;;;;5.25;1.90;;;;;;;;;;5065675;28;20025;-77
2022/05/23 12:30:17;;;;;;;4.72;1.90;;;;;;;;;;5033044;28;20021;-77
2022/05/23 12:32:58;;;;;;;;;;;;;;;;;;5051972;28;20061;-77
2022/05/23 12:35:39;;;;;;;4.75;1.70;;;;;;;;;;5033176;28;19915;-77
2022/05/23 12:38:29;;;;;;;2.17;1.73;;;;;;;;;;5051136;28;20422;-78
2022/05/23 12:41:13;;;;;;;6.00;1.85;;;;;;;;;;5067000;28;20320;-77
2022/05/23 12:43:57;;;;;;;;;;;;;;;;;;5053307;28;20435;-78
2022/05/23 12:46:48;;;;;;;5.07;1.70;;;;;;;;;;5071018;28;19908;-78
2022/05/23 12:49:23;;;;;;;2.95;1.30;;;;;;;;;;5070726;28;20039;-77
2022/05/23 12:52:06;;;;;;;2.00;1.48;;;;;;;;;;5071694;28;20027;-77
2022/05/23 12:54:58;;;;;;;4.32;1.83;;;;;;;;;;5040042;28;20024;-77
2022/05/23 12:57:46;;;;;;;2.20;1.70;;;;;;;;;;5019632;28;20070;-77
2022/05/23 13:00:16;;;;;;;3.38;1.65;;;;;;;;;;5057083;28;20048;-77
2022/05/23 13:02:50;;;;;;;4.85;1.70;;;;;;;;;;5056828;28;20035;-77
2022/05/23 13:05:20;;;;;;;4.15;1.60;;;;;;;;;;5056620;28;20021;-77
2022/05/23 13:08:03;;;;;;;10.85;1.90;;;;;;;;;;5039864;28;20387;-77
2022/05/23 13:10:36;;;;;;;4.38;1.80;;;;;;;;;;5074026;28;20379;-76
2022/05/23 13:13:07;;;;;;;;;;;;;;;;;;5056974;28;20025;-76
2022/05/23 13:15:34;;;;;;;1.88;1.42;;;;;;;;;;5073218;28;19915;-76
2022/05/23 13:23:30;;;;;;;3.70;1.70;;;;;;;;;;5074116;28;20035;-76
2022/05/23 13:25:56;;;;;;;3.55;1.55;;;;;;;;;;5055791;28;20036;-76
2022/05/23 13:28:22;;;;;;;3.33;1.70;;;;;;;;;;5055771;28;20050;-76
2022/05/23 13:30:54;;;;;;;2.30;1.40;;;;;;;;;;5039054;28;20077;-76
2022/05/23 13:33:26;;;;;;;6.53;1.77;;;;;;;;;;5055779;28;20032;-76
2022/05/23 13:35:57;;;;;;;1.53;1.40;;;;;;;;;;5056023;28;20085;-77
2022/05/23 13:38:26;;;;;;;3.70;2.17;;;;;;;;;;5057151;28;20107;-78
2022/05/23 13:40:56;;;;;;;2.50;1.50;;;;;;;;;;5075748;28;20016;-76
2022/05/23 13:43:31;;;;;;;2.28;1.45;;;;;;;;;;5076510;28;20051;-76
2022/05/23 13:46:18;;;;;;;1.30;1.20;;;;;;;;;;5076221;28;20085;-77
2022/05/23 13:49:00;;;;;;;3.25;1.60;;;;;;;;;;5093751;28;20028;-76
2022/05/23 13:51:33;;;;;;;4.53;1.98;;;;;;;;;;5075855;28;20035;-76
2022/05/23 13:54:02;;;;;;;2.35;1.70;;;;;;;;;;5058880;28;20028;-76
2022/05/23 13:56:28;;;;;;;2.88;1.55;;;;;;;;;;5093977;28;20078;-76
2022/05/23 13:58:57;;;;;;;2.92;1.60;;;;;;;;;;5075546;28;20065;-77
2022/05/23 14:01:28;;;;;;;2.35;1.63;;;;;;;;;;5075744;28;20096;-77
2022/05/23 14:04:00;;;;;;;2.85;1.48;;;;;;;;;;5093581;28;20027;-77
2022/05/23 14:06:38;;;;;;;3.97;1.48;;;;;;;;;;5075600;28;20024;-76
2022/05/23 14:09:05;;;;;;;4.30;1.92;;;;;;;;;;5062942;28;20094;-77
2022/05/23 14:11:34;;;;;;;4.53;1.80;;;;;;;;;;5038418;28;20029;-76
2022/05/23 14:14:18;;;;;;;2.15;1.50;;;;;;;;;;5055228;28;20420;-77
2022/05/23 14:16:56;;;;;;;3.03;1.60;;;;;;;;;;5038547;28;20043;-78
2022/05/23 14:19:41;;;;;;;4.47;1.50;;;;;;;;;;5038335;28;20039;-76
2022/05/23 14:22:11;;;;;;;5.13;1.65;;;;;;;;;;5072925;28;20051;-77
2022/05/23 14:24:42;;;;;;;6.13;1.70;;;;;;;;;;5038426;28;20052;-76
2022/05/23 14:27:25;;;;;;;1.77;1.40;;;;;;;;;;5072935;28;20437;-77
2022/05/23 14:30:13;;;;;;;6.90;1.60;;;;;;;;;;5072761;28;20027;-76
2022/05/23 14:32:39;;;;;;;2.88;1.60;;;;;;;;;;5054725;28;20044;-77
2022/05/23 14:35:20;;;;;;;1.55;1.40;;;;;;;;;;5038417;28;20055;-76
2022/05/23 14:37:47;;;;;;;3.63;2.10;;;;;;;;;;5054216;28;20058;-75
2022/05/23 14:40:14;;;;;;;5.03;1.92;;;;;;;;;;5054755;28;20094;-75
2022/05/23 14:42:52;;;;;;;9.13;1.50;;;;;;;;;;5054254;28;20041;-75
2022/05/23 14:45:21;;;;;;;2.72;1.90;;;;;;;;;;5054905;28;20028;-74
2022/05/23 14:47:53;;;;;;;3.63;1.42;;;;;;;;;;5072281;28;20128;-75
2022/05/23 14:50:21;;;;;;;7.00;1.80;;;;;;;;;;5054746;28;20028;-74
2022/05/23 14:55:52;;;;;;;5.68;1.70;;;;;;;;;;5092709;28;20085;-74
2022/05/23 15:01:18;;;;;;;4.82;1.48;;;;;;;;;;5092752;28;20081;-75
2022/05/23 15:03:45;;;;;;;4.95;1.88;;;;;;;;;;5073721;28;20016;-75
2022/05/23 15:06:11;;;;;;;6.40;2.00;;;;;;;;;;5057806;28;20196;-75
2022/05/23 15:08:37;;;;;;;4.35;2.22;;;;;;;;;;5074459;28;20099;-74
2022/05/23 15:11:05;;;;;;;6.03;2.70;;;;;;;;;;5092357;28;20155;-76
2022/05/23 15:13:33;;;;;;;3.75;2.72;;;;;;;;;;5057106;28;20039;-76
2022/05/23 15:16:02;;;;;;;4.00;2.50;;;;;;;;;;5073572;28;20036;-76
2022/05/23 15:18:30;;;;;;;6.45;3.13;;;;;;;;;;5092405;28;20047;-77
2022/05/23 15:20:56;;;;;;;6.28;2.65;;;;;;;;;;5057998;28;20404;-76
2022/05/23 15:23:22;;;;;;;5.78;2.85;;;;;;;;;;5057570;28;20028;-76
2022/05/23 15:25:47;;;;;;;6.05;2.95;;;;;;;;;;5074194;28;20099;-76
2022/05/23 15:28:13;;;;;;;5.35;3.30;;;;;;;;;;5074030;28;20055;-75
2022/05/23 15:30:39;;;;;;;6.60;2.85;;;;;;;;;;5073911;28;20504;-76
2022/05/23 15:33:04;;;;;;;3.92;2.75;;;;;;;;;;5057110;28;20451;-75
2022/05/23 15:35:30;;;;;;;5.00;2.60;;;;;;;;;;5074021;28;20028;-75
2022/05/23 15:37:56;;;;;;;3.80;2.88;;;;;;;;;;5092320;28;20028;-76
2022/05/23 15:40:23;;;;;;;4.72;3.25;;;;;;;;;;5092520;28;20070;-75
2022/05/23 15:42:50;;;;;;;5.35;2.95;;;;;;;;;;5092162;28;20440;-76
2022/05/23 15:45:27;;;;;;;6.30;3.00;;;;;;;;;;5073993;28;20051;-76
2022/05/23 15:47:54;;;;;;;4.80;3.10;;;;;;;;;;5074103;28;20374;-76
2022/05/23 15:50:20;;;;;;;8.02;3.42;;;;;;;;;;5073979;28;20123;-76
2022/05/23 15:52:46;;;;;;;5.05;3.47;;;;;;;;;;5056931;28;20036;-76
2022/05/23 15:55:12;;;;;;;6.85;3.20;;;;;;;;;;5073659;28;20036;-76
2022/05/23 15:57:46;;;;;;;3.63;3.10;;;;;;;;;;5073602;28;20424;-76
2022/05/23 16:00:16;;;;;;;6.72;3.50;;;;;;;;;;5057506;28;20036;-76
2022/05/23 16:02:42;;;;;;;4.50;3.25;;;;;;;;;;5073698;28;20476;-76
2022/05/23 16:05:09;;;;;;;8.30;3.92;;;;;;;;;;5073890;28;20043;-76
2022/05/23 16:07:35;;;;;;;5.55;3.22;;;;;;;;;;5073561;28;20320;-74
2022/05/23 16:10:02;;;;;;;5.25;3.25;;;;;;;;;;5073884;28;20398;-74